createdAt,value
2023-05-11T00:02:02.081Z,54.65
2023-05-11T00:04:29.839Z,55.10
2023-05-11T00:06:57.370Z,54.95
2023-05-11T00:09:24.962Z,54.91
2023-05-11T00:11:53.128Z,54.73
2023-05-11T00:14:20.797Z,55.38
2023-05-11T00:16:48.589Z,55.59
2023-05-11T00:19:16.575Z,56.09
2023-05-11T00:21:44.050Z,55.92
2023-05-11T00:24:11.794Z,56.22
2023-05-11T00:26:39.454Z,55.99
2023-05-11T00:29:07.009Z,55.49
2023-05-11T00:31:34.670Z,55.81
2023-05-11T00:34:02.226Z,56.35
2023-05-11T00:36:29.951Z,56.78
2023-05-11T00:38:57.424Z,56.92
2023-05-11T00:41:25.433Z,56.45
2023-05-11T00:43:53.178Z,56.39
2023-05-11T00:46:20.896Z,56.70
2023-05-11T00:48:48.662Z,56.16
2023-05-11T00:51:16.211Z,56.18
2023-05-11T00:53:43.827Z,56.37
2023-05-11T00:56:11.525Z,55.87
2023-05-11T00:58:39.249Z,55.66
2023-05-11T01:01:06.838Z,56.23
2023-05-11T01:03:34.743Z,56.00
2023-05-11T01:06:10.648Z,56.26
2023-05-11T01:08:57.031Z,56.85
2023-05-11T01:11:37.365Z,56.86
2023-05-11T01:14:16.772Z,56.77
2023-05-11T01:16:47.332Z,56.52
2023-05-11T01:19:39.679Z,56.64
2023-05-11T01:22:28.996Z,56.87
2023-05-11T01:25:07.733Z,57.35
2023-05-11T01:27:48.798Z,57.03
2023-05-11T01:30:31.847Z,57.22
2023-05-11T01:33:00.905Z,57.14
2023-05-11T01:35:28.739Z,57.32
2023-05-11T01:37:57.769Z,57.63
2023-05-11T01:40:27.883Z,57.47
2023-05-11T01:43:01.555Z,57.53
2023-05-11T01:45:29.525Z,57.41
2023-05-11T01:47:57.390Z,57.63
2023-05-11T01:50:25.036Z,57.99
2023-05-11T01:52:53.225Z,57.62
2023-05-11T01:55:22.388Z,57.97
2023-05-11T01:57:53.097Z,57.79
2023-05-11T02:00:21.185Z,58.34
2023-05-11T02:02:49.393Z,57.62
2023-05-11T02:05:19.768Z,57.84
2023-05-11T02:07:49.086Z,57.94
2023-05-11T02:10:17.083Z,57.95
2023-05-11T02:12:44.874Z,57.95
2023-05-11T02:15:12.570Z,57.89
2023-05-11T02:17:41.395Z,57.26
2023-05-11T02:20:09.330Z,57.05
2023-05-11T02:22:36.928Z,57.46
2023-05-11T02:25:05.024Z,58.01
2023-05-11T02:27:35.990Z,57.91
2023-05-11T02:30:04.657Z,58.33
2023-05-11T02:32:33.999Z,57.59
2023-05-11T02:35:05.035Z,57.31
2023-05-11T02:37:33.863Z,57.57
2023-05-11T02:40:05.297Z,57.26
2023-05-11T02:42:37.680Z,57.21
2023-05-11T02:45:07.362Z,57.06
2023-05-11T02:47:54.853Z,57.39
2023-05-11T02:50:25.648Z,57.70
2023-05-11T02:52:55.034Z,57.17
2023-05-11T02:55:22.776Z,56.85
2023-05-11T02:57:50.516Z,57.03
2023-05-11T03:00:18.600Z,56.64
2023-05-11T03:02:47.908Z,56.39
2023-05-11T03:05:18.271Z,56.60
2023-05-11T03:07:47.239Z,57.66
2023-05-11T03:10:14.717Z,58.88
2023-05-11T03:12:44.489Z,58.01
2023-05-11T03:15:12.653Z,57.63
2023-05-11T03:17:43.272Z,56.62
2023-05-11T03:20:14.002Z,56.74
2023-05-11T03:22:41.700Z,56.91
2023-05-11T03:25:09.592Z,57.73
2023-05-11T03:27:37.218Z,57.13
2023-05-11T03:30:09.856Z,57.11
2023-05-11T03:32:42.175Z,57.32
2023-05-11T03:35:09.912Z,58.22
2023-05-11T03:37:38.256Z,57.97
2023-05-11T03:40:08.199Z,56.31
2023-05-11T03:42:45.943Z,56.23
2023-05-11T03:45:14.041Z,55.85
2023-05-11T03:47:41.761Z,55.29
2023-05-11T03:50:10.646Z,54.66
2023-05-11T03:52:39.186Z,54.66
2023-05-11T03:55:07.620Z,54.57
2023-05-11T03:57:35.327Z,54.28
2023-05-11T04:00:02.933Z,54.84
2023-05-11T04:02:34.659Z,54.38
2023-05-11T04:05:09.729Z,54.12
2023-05-11T04:07:38.102Z,54.35
2023-05-11T04:10:06.731Z,54.52
2023-05-11T04:12:34.530Z,54.37
2023-05-11T04:15:02.295Z,54.03
2023-05-11T04:17:30.658Z,53.46
2023-05-11T04:19:58.370Z,54.33
2023-05-11T04:22:25.910Z,53.67
2023-05-11T04:24:53.385Z,53.87
2023-05-11T04:27:20.992Z,53.58
2023-05-11T04:29:48.806Z,53.46
2023-05-11T04:32:17.996Z,52.96
2023-05-11T04:34:46.192Z,53.12
2023-05-11T04:37:14.064Z,53.27
2023-05-11T04:39:43.312Z,52.88
2023-05-11T04:42:11.206Z,52.31
2023-05-11T04:44:39.443Z,51.60
2023-05-11T04:47:07.847Z,51.18
2023-05-11T04:49:35.951Z,51.18
2023-05-11T04:52:03.764Z,50.78
2023-05-11T04:54:31.736Z,50.64
2023-05-11T04:56:59.554Z,50.39
2023-05-11T04:59:27.130Z,49.68
2023-05-11T05:01:54.954Z,49.78
2023-05-11T05:04:22.730Z,49.48
2023-05-11T05:06:50.406Z,49.98
2023-05-11T05:09:18.335Z,49.82
2023-05-11T05:11:45.981Z,49.47
2023-05-11T05:14:13.681Z,49.91
2023-05-11T05:16:41.768Z,49.17
2023-05-11T05:19:10.287Z,48.74
2023-05-11T05:21:37.865Z,48.64
2023-05-11T05:24:06.935Z,49.23
2023-05-11T05:26:34.455Z,49.40
2023-05-11T05:29:02.764Z,48.74
2023-05-11T05:31:30.880Z,49.11
2023-05-11T05:33:58.913Z,49.38
2023-05-11T05:36:26.486Z,49.02
2023-05-11T05:38:53.997Z,48.95
2023-05-11T05:41:23.171Z,48.54
2023-05-11T05:43:52.136Z,48.66
2023-05-11T05:46:20.493Z,48.22
2023-05-11T05:48:48.104Z,48.77
2023-05-11T05:51:16.474Z,48.13
2023-05-11T05:53:44.894Z,48.06
2023-05-11T05:56:12.520Z,47.37
2023-05-11T05:58:40.097Z,47.83
2023-05-11T06:01:07.630Z,47.96
2023-05-11T06:03:35.836Z,47.85
2023-05-11T06:06:04.405Z,48.38
2023-05-11T06:08:32.998Z,48.13
2023-05-11T06:11:01.150Z,48.49
2023-05-11T06:13:29.128Z,48.78
2023-05-11T06:15:57.697Z,48.56
2023-05-11T06:18:30.133Z,48.73
2023-05-11T06:20:59.372Z,48.38
2023-05-11T06:23:28.587Z,47.97
2023-05-11T06:25:56.325Z,47.95
2023-05-11T06:28:24.929Z,48.19
2023-05-11T06:31:00.142Z,48.45
2023-05-11T06:33:31.293Z,48.23
2023-05-11T06:35:59.568Z,47.91
2023-05-11T06:38:29.830Z,47.11
2023-05-11T06:40:57.496Z,47.13
2023-05-11T06:43:25.065Z,47.43
2023-05-11T06:45:53.868Z,46.40
2023-05-11T06:48:23.616Z,46.31
2023-05-11T06:50:51.647Z,46.62
2023-05-11T06:53:19.187Z,46.62
2023-05-11T06:55:47.292Z,46.18
2023-05-11T06:58:14.904Z,45.72
2023-05-11T07:00:42.801Z,44.81
2023-05-11T07:03:10.424Z,43.93
2023-05-11T07:05:39.166Z,42.41
2023-05-11T07:08:06.760Z,42.78
2023-05-11T07:10:34.283Z,42.86
2023-05-11T07:13:02.272Z,43.20
2023-05-11T07:15:29.860Z,40.79
2023-05-11T07:17:57.452Z,40.65
2023-05-11T07:20:25.268Z,39.22
2023-05-11T07:22:56.012Z,39.29
2023-05-11T07:25:23.927Z,39.63
2023-05-11T07:27:51.408Z,39.13
2023-05-11T07:30:19.131Z,39.53
2023-05-11T07:32:47.020Z,38.95
2023-05-11T07:35:15.354Z,38.47
2023-05-11T07:37:43.229Z,37.80
2023-05-11T07:40:11.288Z,38.74
2023-05-11T07:42:39.210Z,38.69
2023-05-11T07:45:07.324Z,38.44
2023-05-11T07:47:36.961Z,38.98
2023-05-11T07:50:05.347Z,38.63
2023-05-11T07:52:33.536Z,39.08
2023-05-11T07:55:01.185Z,38.91
2023-05-11T07:57:28.746Z,38.61
2023-05-11T07:59:56.261Z,39.22
2023-05-11T08:02:24.031Z,38.40
2023-05-11T08:04:51.897Z,38.00
2023-05-11T08:07:19.384Z,36.31
2023-05-11T08:09:46.948Z,36.62
2023-05-11T08:12:15.420Z,37.56
2023-05-11T08:14:43.343Z,37.32
2023-05-11T08:17:11.049Z,37.21
2023-05-11T08:19:38.679Z,37.49
2023-05-11T08:22:06.222Z,36.75
2023-05-11T08:24:33.773Z,36.49
2023-05-11T08:27:01.460Z,36.76
2023-05-11T08:29:29.063Z,36.77
2023-05-11T08:31:56.772Z,36.91
2023-05-11T08:34:24.762Z,36.69
2023-05-11T08:36:53.327Z,37.33
2023-05-11T08:39:38.995Z,34.84
2023-05-11T08:42:09.656Z,33.94
2023-05-11T08:44:37.958Z,34.72
2023-05-11T08:47:22.037Z,33.74
2023-05-11T08:49:54.055Z,35.29
2023-05-11T08:52:21.606Z,34.43
2023-05-11T08:54:49.121Z,34.86
2023-05-11T08:57:16.697Z,34.96
2023-05-11T08:59:45.601Z,35.34
2023-05-11T09:02:16.586Z,35.34
2023-05-11T09:04:48.914Z,34.94
2023-05-11T09:07:19.799Z,35.47
2023-05-11T09:09:47.714Z,36.55
2023-05-11T09:12:16.117Z,35.42
2023-05-11T09:14:43.791Z,35.16
2023-05-11T09:17:11.514Z,34.86
2023-05-11T09:19:57.148Z,35.49
2023-05-11T09:22:24.939Z,35.57
2023-05-11T09:24:52.802Z,34.65
2023-05-11T09:27:21.615Z,33.85
2023-05-11T09:29:52.225Z,34.01
2023-05-11T09:32:19.918Z,34.00
2023-05-11T09:34:47.957Z,34.06
2023-05-11T09:37:17.567Z,34.17
2023-05-11T09:40:14.182Z,33.95
2023-05-11T09:42:33.173Z,34.22
2023-05-11T09:45:00.698Z,34.30
2023-05-11T09:47:30.517Z,34.96
2023-05-11T09:49:58.126Z,33.53
2023-05-11T09:52:25.568Z,33.61
2023-05-11T09:54:53.117Z,34.07
2023-05-11T09:57:27.785Z,33.46
2023-05-11T09:59:55.738Z,34.16
2023-05-11T10:02:27.620Z,33.77
2023-05-11T10:04:58.637Z,33.68
2023-05-11T10:07:35.702Z,34.30
2023-05-11T10:10:07.686Z,34.24
2023-05-11T10:12:38.526Z,34.07
2023-05-11T10:15:08.000Z,33.98
2023-05-11T10:17:35.828Z,34.65
2023-05-11T10:20:04.579Z,33.95
2023-05-11T10:22:32.939Z,34.91
2023-05-11T10:25:00.581Z,33.94
2023-05-11T10:27:28.702Z,35.16
2023-05-11T10:29:57.167Z,35.01
2023-05-11T10:32:24.903Z,34.32
2023-05-11T10:34:52.700Z,34.25
2023-05-11T10:37:21.372Z,34.72
2023-05-11T10:39:50.670Z,33.90
2023-05-11T10:42:38.954Z,33.79
2023-05-11T10:45:34.378Z,32.85
2023-05-11T10:48:14.342Z,34.24
2023-05-11T10:50:57.222Z,33.57
2023-05-11T10:53:46.847Z,34.07
2023-05-11T10:56:42.830Z,33.98
2023-05-11T10:59:22.734Z,33.63
2023-05-11T11:01:52.424Z,32.82
2023-05-11T11:04:21.052Z,31.80
2023-05-11T11:06:49.884Z,32.35
2023-05-11T11:09:17.687Z,33.37
2023-05-11T11:11:46.695Z,33.30
2023-05-11T11:14:15.140Z,33.33
2023-05-11T11:17:14.619Z,32.99
2023-05-11T11:19:42.538Z,32.97
2023-05-11T11:22:36.024Z,32.78
2023-05-11T11:25:07.268Z,32.87
2023-05-11T11:27:45.375Z,32.30
2023-05-11T11:30:28.542Z,32.18
2023-05-11T11:33:08.169Z,30.85
2023-05-11T11:35:42.026Z,30.81
2023-05-11T11:38:11.115Z,31.40
2023-05-11T11:40:47.175Z,31.22
2023-05-11T11:43:25.966Z,30.53
2023-05-11T11:45:56.551Z,32.04
2023-05-11T11:48:30.490Z,32.16
2023-05-11T11:51:11.509Z,32.17
2023-05-11T11:53:43.795Z,33.41
2023-05-11T11:56:14.332Z,32.01
2023-05-11T11:58:41.916Z,31.97
2023-05-11T12:01:10.515Z,33.00
2023-05-11T12:03:38.436Z,32.47
2023-05-11T12:06:09.230Z,33.24
2023-05-11T12:08:38.249Z,32.41
2023-05-11T12:11:06.553Z,32.99
2023-05-11T12:13:34.695Z,31.06
2023-05-11T12:16:08.329Z,31.13
2023-05-11T12:18:36.390Z,31.20
2023-05-11T12:21:04.091Z,30.98
2023-05-11T12:23:32.380Z,31.22
2023-05-11T12:26:06.923Z,30.76
2023-05-11T12:28:34.487Z,30.86
2023-05-11T12:31:02.249Z,30.76
2023-05-11T12:33:30.081Z,31.08
2023-05-11T12:35:58.102Z,31.69
2023-05-11T12:38:25.662Z,32.26
2023-05-11T12:40:53.454Z,32.03
2023-05-11T12:43:21.965Z,32.07
2023-05-11T12:45:49.461Z,31.63
2023-05-11T12:48:17.568Z,32.04
2023-05-11T12:50:46.102Z,31.05
2023-05-11T12:53:16.221Z,31.01
2023-05-11T12:55:45.520Z,31.34
2023-05-11T12:58:15.158Z,32.15
2023-05-11T13:00:54.467Z,32.11
2023-05-11T13:03:26.180Z,32.39
2023-05-11T13:06:24.104Z,32.47
2023-05-11T13:08:52.855Z,32.69
2023-05-11T13:11:25.958Z,32.85
2023-05-11T13:13:59.886Z,32.92
2023-05-11T13:16:32.379Z,33.25
2023-05-11T13:19:01.257Z,33.59
2023-05-11T13:21:29.931Z,32.88
2023-05-11T13:23:57.851Z,31.82
2023-05-11T13:26:26.466Z,32.81
2023-05-11T13:29:08.720Z,32.65
2023-05-11T13:31:51.421Z,32.47
2023-05-11T13:34:19.844Z,32.80
2023-05-11T13:36:48.443Z,32.65
2023-05-11T13:39:16.243Z,33.18
2023-05-11T13:41:43.987Z,33.27
2023-05-11T13:44:11.603Z,32.67
2023-05-11T13:46:39.398Z,31.61
2023-05-11T13:49:07.149Z,31.30
2023-05-11T13:51:35.947Z,32.19
2023-05-11T13:54:03.655Z,31.93
2023-05-11T13:56:31.577Z,31.35
2023-05-11T13:59:00.084Z,32.28
2023-05-11T14:01:27.949Z,32.28
2023-05-11T14:03:55.842Z,32.46
2023-05-11T14:06:24.604Z,32.63
2023-05-11T14:08:52.512Z,32.37
2023-05-11T14:11:21.128Z,32.36
2023-05-11T14:13:48.702Z,31.78
2023-05-11T14:16:16.200Z,31.45
2023-05-11T14:18:44.398Z,31.44
2023-05-11T14:21:12.175Z,31.83
2023-05-11T14:23:44.948Z,32.27
2023-05-11T14:26:17.688Z,32.07
2023-05-11T14:28:45.219Z,32.21
2023-05-11T14:31:13.353Z,32.05
2023-05-11T14:33:40.965Z,31.81
2023-05-11T14:36:08.733Z,31.81
2023-05-11T14:38:36.463Z,31.98
2023-05-11T14:41:04.042Z,32.00
2023-05-11T14:43:32.718Z,31.92
2023-05-11T14:46:00.228Z,31.58
2023-05-11T14:48:27.799Z,31.07
2023-05-11T14:50:55.362Z,31.43
2023-05-11T14:53:23.171Z,30.90
2023-05-11T14:55:50.860Z,30.68
2023-05-11T14:58:18.399Z,30.78
2023-05-11T15:00:45.950Z,29.57
2023-05-11T15:03:13.507Z,29.87
2023-05-11T15:05:41.521Z,29.71
2023-05-11T15:08:21.700Z,29.49
2023-05-11T15:10:53.760Z,29.76
2023-05-11T15:13:22.415Z,30.65
2023-05-11T15:15:50.320Z,29.93
2023-05-11T15:18:18.262Z,30.26
2023-05-11T15:20:46.276Z,30.21
2023-05-11T15:23:17.198Z,30.83
2023-05-11T15:25:45.332Z,30.04
2023-05-11T15:28:13.278Z,29.97
2023-05-11T15:30:41.771Z,30.34
2023-05-11T15:33:10.208Z,30.69
2023-05-11T15:35:38.166Z,31.41
2023-05-11T15:38:06.220Z,31.17
2023-05-11T15:40:34.101Z,31.64
2023-05-11T15:43:01.850Z,32.10
2023-05-11T15:45:29.535Z,31.99
2023-05-11T15:47:58.285Z,31.84
2023-05-11T15:50:26.019Z,32.41
2023-05-11T15:52:53.485Z,31.22
2023-05-11T15:55:21.176Z,31.70
2023-05-11T15:57:48.817Z,31.85
2023-05-11T16:00:16.586Z,32.34
2023-05-11T16:02:45.991Z,31.70
2023-05-11T16:05:13.997Z,31.63
2023-05-11T16:07:41.640Z,32.20
2023-05-11T16:10:09.929Z,31.76
2023-05-11T16:12:37.525Z,32.10
2023-05-11T16:15:06.331Z,31.74
2023-05-11T16:17:34.854Z,31.41
2023-05-11T16:20:03.513Z,31.81
2023-05-11T16:22:31.401Z,31.96
2023-05-11T16:24:58.959Z,32.53
2023-05-11T16:27:26.532Z,32.29
2023-05-11T16:29:54.072Z,31.78
2023-05-11T16:32:21.632Z,32.37
2023-05-11T16:34:49.588Z,32.29
2023-05-11T16:37:17.064Z,32.52
2023-05-11T16:39:44.912Z,32.77
2023-05-11T16:42:12.449Z,33.14
2023-05-11T16:44:39.966Z,33.08
2023-05-11T16:47:07.543Z,33.13
2023-05-11T16:49:35.172Z,33.67
2023-05-11T16:52:02.633Z,33.84
2023-05-11T16:54:30.576Z,33.63
2023-05-11T16:56:58.252Z,33.72
2023-05-11T16:59:25.846Z,34.07
2023-05-11T17:01:53.556Z,34.17
2023-05-11T17:04:21.232Z,34.37
2023-05-11T17:06:49.170Z,34.46
2023-05-11T17:09:16.777Z,34.77
2023-05-11T17:11:44.463Z,35.12
2023-05-11T17:14:12.047Z,34.85
2023-05-11T17:16:39.645Z,35.15
2023-05-11T17:19:08.418Z,35.12
2023-05-11T17:21:36.552Z,35.35
2023-05-11T17:24:04.392Z,35.44
2023-05-11T17:26:43.395Z,35.20
2023-05-11T17:29:16.555Z,35.27
2023-05-11T17:31:48.828Z,35.83
2023-05-11T17:34:20.988Z,35.53
2023-05-11T17:36:49.661Z,35.79
2023-05-11T17:39:17.353Z,36.06
2023-05-11T17:41:44.926Z,37.06
2023-05-11T17:44:13.358Z,37.37
2023-05-11T17:46:40.873Z,36.92
2023-05-11T17:49:08.909Z,37.57
2023-05-11T17:51:36.517Z,38.24
2023-05-11T17:54:04.022Z,38.23
2023-05-11T17:56:32.177Z,37.06
2023-05-11T17:58:59.901Z,37.07
2023-05-11T18:01:27.803Z,38.00
2023-05-11T18:03:57.596Z,38.46
2023-05-11T18:06:25.644Z,38.52
2023-05-11T18:08:53.245Z,38.54
2023-05-11T18:11:21.328Z,38.13
2023-05-11T18:13:49.363Z,39.13
2023-05-11T18:16:17.368Z,39.69
2023-05-11T18:18:45.123Z,39.75
2023-05-11T18:21:12.828Z,39.68
2023-05-11T18:23:40.408Z,39.64
2023-05-11T18:26:08.348Z,39.52
2023-05-11T18:28:35.935Z,39.86
2023-05-11T18:31:03.471Z,40.01
2023-05-11T18:33:31.328Z,39.78
2023-05-11T18:35:59.008Z,39.83
2023-05-11T18:38:27.179Z,39.75
2023-05-11T18:40:56.326Z,39.69
2023-05-11T18:43:24.046Z,39.63
2023-05-11T18:45:52.869Z,40.17
2023-05-11T18:48:21.485Z,40.12
2023-05-11T18:50:56.278Z,41.14
2023-05-11T18:53:24.082Z,41.09
2023-05-11T18:55:53.638Z,40.98
2023-05-11T18:58:21.523Z,40.96
2023-05-11T19:00:52.389Z,40.65
2023-05-11T19:03:20.757Z,40.57
2023-05-11T19:05:48.872Z,40.90
2023-05-11T19:08:16.735Z,40.74
2023-05-11T19:10:45.556Z,40.96
2023-05-11T19:13:13.497Z,41.14
2023-05-11T19:15:40.990Z,41.04
2023-05-11T19:18:08.914Z,40.96
2023-05-11T19:20:38.101Z,41.29
2023-05-11T19:23:06.761Z,41.54
2023-05-11T19:25:34.421Z,41.59
2023-05-11T19:28:01.941Z,41.78
2023-05-11T19:30:29.528Z,41.76
2023-05-11T19:32:57.159Z,41.62
2023-05-11T19:35:24.934Z,41.78
2023-05-11T19:37:52.457Z,41.95
2023-05-11T19:42:52.994Z,42.31
2023-05-11T19:45:20.569Z,42.49
2023-05-11T19:47:48.381Z,42.26
2023-05-11T19:50:18.143Z,42.40
2023-05-11T19:52:46.544Z,42.61
2023-05-11T19:55:14.692Z,42.12
2023-05-11T19:57:42.657Z,42.32
2023-05-11T20:00:11.847Z,42.17
2023-05-11T20:02:39.609Z,41.91
2023-05-11T20:05:07.575Z,41.74
2023-05-11T20:07:35.522Z,41.89
2023-05-11T20:10:04.097Z,42.09
2023-05-11T20:12:32.142Z,42.50
2023-05-11T20:15:01.087Z,42.74
2023-05-11T20:17:29.032Z,42.99
2023-05-11T20:19:56.555Z,43.27
2023-05-11T20:22:24.370Z,43.26
2023-05-11T20:24:51.831Z,43.69
2023-05-11T20:27:19.581Z,43.74
2023-05-11T20:29:47.120Z,43.86
2023-05-11T20:32:15.179Z,43.79
2023-05-11T20:34:42.793Z,43.94
2023-05-11T20:37:10.956Z,44.20
2023-05-11T20:39:38.745Z,44.31
2023-05-11T20:42:06.372Z,43.86
2023-05-11T20:44:33.885Z,44.16
2023-05-11T20:47:01.700Z,43.88
2023-05-11T20:49:38.202Z,44.25
2023-05-11T20:52:07.597Z,44.03
2023-05-11T20:54:35.916Z,43.03
2023-05-11T20:57:08.253Z,43.52
2023-05-11T21:02:06.633Z,43.57
2023-05-11T21:04:36.150Z,43.82
2023-05-11T21:07:03.672Z,43.79
2023-05-11T21:09:31.436Z,43.49
2023-05-11T21:11:59.174Z,43.48
2023-05-11T21:14:26.800Z,43.94
2023-05-11T21:16:54.273Z,43.52
2023-05-11T21:19:21.775Z,44.34
2023-05-11T21:21:49.798Z,44.12
2023-05-11T21:24:17.300Z,43.51
2023-05-11T21:26:47.957Z,43.98
2023-05-11T21:29:15.847Z,43.29
2023-05-11T21:31:43.402Z,43.46
2023-05-11T21:34:11.890Z,43.58
2023-05-11T21:36:41.350Z,43.91
2023-05-11T21:39:09.033Z,44.24
2023-05-11T21:41:36.730Z,44.85
2023-05-11T21:44:04.274Z,45.03
2023-05-11T21:46:32.646Z,44.91
2023-05-11T21:49:00.265Z,45.04
2023-05-11T21:51:28.024Z,45.13
2023-05-11T21:53:55.738Z,45.71
2023-05-11T21:56:23.626Z,46.11
2023-05-11T21:58:51.153Z,46.51
2023-05-11T22:01:18.947Z,46.42
2023-05-11T22:03:46.559Z,46.65
2023-05-11T22:06:14.099Z,47.05
2023-05-11T22:08:41.602Z,47.06
2023-05-11T22:11:10.066Z,47.15
2023-05-11T22:13:37.676Z,47.38
2023-05-11T22:16:05.936Z,47.55
2023-05-11T22:18:33.968Z,47.50
2023-05-11T22:21:01.619Z,48.09
2023-05-11T22:23:29.590Z,48.31
2023-05-11T22:25:57.071Z,48.46
2023-05-11T22:28:24.707Z,48.04
2023-05-11T22:30:52.253Z,48.53
2023-05-11T22:33:19.769Z,49.07
2023-05-11T22:35:47.571Z,49.10
2023-05-11T22:38:15.399Z,48.46
2023-05-11T22:40:42.981Z,48.63
2023-05-11T22:43:10.548Z,49.14
2023-05-11T22:45:38.132Z,49.31
2023-05-11T22:48:06.756Z,49.76
2023-05-11T22:50:34.299Z,49.73
2023-05-11T22:53:01.841Z,49.71
2023-05-11T22:55:29.395Z,49.70
2023-05-11T22:57:57.098Z,49.61
2023-05-11T23:00:25.474Z,49.73
2023-05-11T23:02:52.987Z,50.05
2023-05-11T23:05:20.561Z,49.70
2023-05-11T23:07:48.256Z,49.45
2023-05-11T23:10:16.828Z,50.04
2023-05-11T23:12:44.820Z,50.47
2023-05-11T23:15:12.287Z,50.61
2023-05-11T23:17:39.971Z,50.52
2023-05-11T23:20:07.905Z,50.21
2023-05-11T23:22:35.489Z,50.20
2023-05-11T23:25:03.050Z,50.73
2023-05-11T23:27:30.719Z,50.84
2023-05-11T23:29:58.190Z,50.91
2023-05-11T23:32:25.780Z,50.99
2023-05-11T23:34:53.636Z,50.74
2023-05-11T23:37:22.322Z,50.90
2023-05-11T23:39:49.719Z,51.11
2023-05-11T23:42:17.373Z,50.86
2023-05-11T23:44:44.890Z,50.99
2023-05-11T23:47:12.455Z,50.97
2023-05-11T23:49:40.130Z,50.77
2023-05-11T23:52:07.699Z,51.09
2023-05-11T23:54:35.344Z,51.05
2023-05-11T23:57:02.852Z,50.90
2023-05-11T23:59:31.581Z,50.48
